Time;durP1;ratioP1;P1;durP2;ratioP2;P2;SDS_P1;SDS_P2;PMS_P1;PMS_P2;Temp;Humidity;BMP_temperature;BMP_pressure;BME280_temperature;BME280_humidity;BME280_pressure;Samples;Min_cycle;Max_cycle;Signal;HPM_P1;HPM_P2
2021/08/01 00:00:39;;;;;;;22.15;14.75;;;;;;;;;;5064325;28;20193;-71
2021/08/01 00:03:04;;;;;;;27.30;15.82;;;;;;;;;;5068979;28;20287;-71
2021/08/01 00:05:29;;;;;;;22.20;14.80;;;;;;;;;;5046701;28;20184;-70
2021/08/01 00:07:55;;;;;;;28.00;15.77;;;;;;;;;;5066056;28;20690;-71
2021/08/01 00:10:20;;;;;;;32.13;16.03;;;;;;;;;;5068852;28;20254;-70
2021/08/01 00:12:45;;;;;;;37.47;17.63;;;;;;;;;;5070109;28;20978;-71
2021/08/01 00:15:11;;;;;;;29.30;17.45;;;;;;;;;;5070243;28;20165;-71
2021/08/01 00:17:36;;;;;;;27.80;16.02;;;;;;;;;;5064511;28;20235;-71
2021/08/01 00:20:02;;;;;;;29.58;17.00;;;;;;;;;;5048261;28;20196;-71
2021/08/01 00:22:27;;;;;;;28.52;14.73;;;;;;;;;;5069764;28;20677;-71
2021/08/01 00:24:52;;;;;;;25.10;15.80;;;;;;;;;;5052257;28;20226;-71
2021/08/01 00:27:18;;;;;;;28.67;16.50;;;;;;;;;;5071978;28;20433;-70
2021/08/01 00:29:43;;;;;;;31.17;17.07;;;;;;;;;;5053338;28;20450;-71
2021/08/01 00:32:08;;;;;;;29.73;17.30;;;;;;;;;;5066552;28;20436;-71
2021/08/01 00:34:34;;;;;;;29.90;18.08;;;;;;;;;;5062079;28;20200;-71
2021/08/01 00:36:59;;;;;;;31.77;18.55;;;;;;;;;;5065011;28;20176;-71
2021/08/01 00:39:24;;;;;;;29.17;17.05;;;;;;;;;;5064508;28;20196;-71
2021/08/01 00:41:50;;;;;;;38.08;19.80;;;;;;;;;;5063811;28;20182;-71
2021/08/01 00:44:15;;;;;;;40.85;19.52;;;;;;;;;;5052148;28;20288;-71
2021/08/01 00:46:40;;;;;;;29.88;18.17;;;;;;;;;;5064591;28;20188;-71
2021/08/01 00:49:06;;;;;;;42.63;20.55;;;;;;;;;;5068702;28;20230;-71
2021/08/01 00:51:31;;;;;;;35.60;18.98;;;;;;;;;;5070419;28;20176;-71
2021/08/01 00:53:59;;;;;;;40.28;20.25;;;;;;;;;;5067285;28;20205;-71
2021/08/01 00:56:25;;;;;;;39.17;21.85;;;;;;;;;;5062721;28;20173;-71
2021/08/01 00:58:50;;;;;;;35.78;20.05;;;;;;;;;;5068315;28;20670;-71
2021/08/01 01:01:18;;;;;;;38.47;20.83;;;;;;;;;;5068689;28;20575;-71
2021/08/01 01:03:53;;;;;;;31.52;19.23;;;;;;;;;;5068911;28;20216;-71
2021/08/01 01:06:37;;;;;;;34.55;19.30;;;;;;;;;;5044665;28;20570;-71
2021/08/01 01:09:07;;;;;;;40.20;18.83;;;;;;;;;;5063290;28;20570;-71
2021/08/01 01:11:35;;;;;;;31.85;19.45;;;;;;;;;;5067686;28;20239;-73
2021/08/01 01:14:01;;;;;;;36.83;20.02;;;;;;;;;;5066329;28;20682;-71
2021/08/01 01:16:28;;;;;;;45.53;23.63;;;;;;;;;;5058749;28;20649;-71
2021/08/01 01:18:56;;;;;;;40.08;22.33;;;;;;;;;;5068806;28;20187;-71
2021/08/01 01:21:37;;;;;;;42.42;20.92;;;;;;;;;;5046568;28;20173;-71
2021/08/01 01:24:04;;;;;;;34.80;19.35;;;;;;;;;;5068419;28;20201;-71
2021/08/01 01:26:38;;;;;;;40.92;21.75;;;;;;;;;;5064929;28;20259;-71
2021/08/01 01:29:06;;;;;;;38.40;22.70;;;;;;;;;;5068436;28;20634;-71
2021/08/01 01:31:47;;;;;;;38.60;22.40;;;;;;;;;;5067930;28;20222;-71
2021/08/01 01:34:16;;;;;;;42.53;21.08;;;;;;;;;;5066908;28;20196;-71
2021/08/01 01:36:45;;;;;;;41.00;21.15;;;;;;;;;;5066400;28;20169;-71
2021/08/01 01:39:10;;;;;;;41.20;22.85;;;;;;;;;;5048849;28;20189;-71
2021/08/01 01:41:36;;;;;;;34.95;20.25;;;;;;;;;;5066694;28;20595;-71
2021/08/01 01:44:04;;;;;;;35.80;22.02;;;;;;;;;;5051320;28;20196;-71
2021/08/01 01:46:29;;;;;;;35.40;19.38;;;;;;;;;;5068591;28;20176;-71
2021/08/01 01:48:55;;;;;;;34.55;18.83;;;;;;;;;;5065810;28;20239;-71
2021/08/01 01:51:20;;;;;;;32.45;18.50;;;;;;;;;;5051038;28;20184;-71
2021/08/01 01:53:46;;;;;;;25.58;16.73;;;;;;;;;;5068337;28;20197;-71
2021/08/01 01:56:13;;;;;;;29.20;16.58;;;;;;;;;;5067825;28;20181;-71
2021/08/01 01:58:39;;;;;;;36.42;16.83;;;;;;;;;;5067503;28;20220;-71
2021/08/01 02:01:04;;;;;;;27.85;16.35;;;;;;;;;;5067340;28;20189;-71
2021/08/01 02:03:29;;;;;;;29.40;16.90;;;;;;;;;;5067913;28;20208;-71
2021/08/01 02:05:54;;;;;;;29.70;16.43;;;;;;;;;;5065567;28;20181;-71
2021/08/01 02:08:19;;;;;;;34.20;17.17;;;;;;;;;;5053653;28;20427;-71
2021/08/01 02:10:55;;;;;;;25.60;17.15;;;;;;;;;;5045199;28;20235;-71
2021/08/01 02:13:25;;;;;;;25.08;16.60;;;;;;;;;;5065003;28;20273;-71
2021/08/01 02:15:51;;;;;;;42.88;18.33;;;;;;;;;;5063758;28;20180;-71
2021/08/01 02:18:36;;;;;;;24.73;17.77;;;;;;;;;;5067133;28;20192;-71
2021/08/01 02:21:02;;;;;;;31.55;19.73;;;;;;;;;;5065167;28;20200;-71
2021/08/01 02:23:30;;;;;;;31.13;19.50;;;;;;;;;;5066075;28;20228;-71
2021/08/01 02:25:55;;;;;;;30.63;19.05;;;;;;;;;;5049633;28;20184;-71
2021/08/01 02:28:23;;;;;;;33.00;20.17;;;;;;;;;;5068180;28;20177;-71
2021/08/01 02:30:49;;;;;;;29.58;19.10;;;;;;;;;;5069659;28;20296;-71
2021/08/01 02:33:15;;;;;;;28.33;18.98;;;;;;;;;;5066745;28;20188;-71
2021/08/01 02:35:40;;;;;;;32.70;20.23;;;;;;;;;;5069435;28;20523;-71
2021/08/01 02:38:06;;;;;;;30.58;18.55;;;;;;;;;;5065752;28;20181;-71
2021/08/01 02:40:38;;;;;;;25.35;17.65;;;;;;;;;;5054198;28;20226;-71
2021/08/01 02:43:05;;;;;;;27.15;17.58;;;;;;;;;;5065521;28;20201;-71
2021/08/01 02:45:32;;;;;;;25.08;17.05;;;;;;;;;;5065070;28;20177;-71
2021/08/01 02:47:58;;;;;;;29.42;16.95;;;;;;;;;;5070979;28;20548;-71
2021/08/01 02:50:25;;;;;;;30.30;16.63;;;;;;;;;;5054189;28;20243;-71
2021/08/01 02:53:00;;;;;;;28.23;16.58;;;;;;;;;;5071344;28;20207;-71
2021/08/01 02:55:28;;;;;;;26.88;15.82;;;;;;;;;;5048729;28;20567;-71
2021/08/01 02:57:53;;;;;;;30.02;16.83;;;;;;;;;;5071667;28;21460;-70
2021/08/01 03:00:19;;;;;;;23.20;15.35;;;;;;;;;;5072061;28;20199;-71
2021/08/01 03:02:46;;;;;;;20.15;13.90;;;;;;;;;;5066482;28;20197;-71
2021/08/01 03:05:12;;;;;;;21.48;15.20;;;;;;;;;;5072310;28;20341;-71
2021/08/01 03:07:38;;;;;;;20.38;14.02;;;;;;;;;;5069855;28;20554;-71
2021/08/01 03:10:03;;;;;;;21.95;13.18;;;;;;;;;;5046589;28;20193;-71
2021/08/01 03:12:28;;;;;;;22.88;14.63;;;;;;;;;;5068134;28;20258;-71
2021/08/01 03:14:54;;;;;;;19.98;13.70;;;;;;;;;;5073223;28;20557;-71
2021/08/01 03:17:19;;;;;;;18.63;13.23;;;;;;;;;;5071627;28;20179;-70
2021/08/01 03:19:44;;;;;;;19.92;14.27;;;;;;;;;;5069961;28;20185;-70
2021/08/01 03:22:09;;;;;;;18.70;12.98;;;;;;;;;;5073349;28;20176;-71
2021/08/01 03:24:34;;;;;;;19.10;11.93;;;;;;;;;;5070602;28;20203;-71
2021/08/01 03:27:00;;;;;;;29.63;13.98;;;;;;;;;;5071785;28;20221;-71
2021/08/01 03:29:25;;;;;;;20.88;12.57;;;;;;;;;;5055348;28;20590;-71
2021/08/01 03:31:50;;;;;;;18.20;12.38;;;;;;;;;;5054014;28;20173;-71
2021/08/01 03:34:15;;;;;;;20.50;11.73;;;;;;;;;;5068775;28;20634;-70
2021/08/01 03:36:41;;;;;;;22.10;13.57;;;;;;;;;;5069497;28;20181;-71
2021/08/01 03:39:06;;;;;;;19.73;12.13;;;;;;;;;;5070058;28;20207;-71
2021/08/01 03:41:31;;;;;;;21.98;13.38;;;;;;;;;;5067015;28;20173;-71
2021/08/01 03:43:57;;;;;;;25.58;13.02;;;;;;;;;;5068746;28;20708;-71
2021/08/01 03:46:22;;;;;;;20.27;12.18;;;;;;;;;;5069331;28;20228;-71
2021/08/01 03:48:47;;;;;;;22.08;12.90;;;;;;;;;;5069278;28;20181;-71
2021/08/01 03:51:12;;;;;;;24.33;12.10;;;;;;;;;;5068226;28;20180;-71
2021/08/01 03:53:37;;;;;;;20.20;12.68;;;;;;;;;;5072749;28;20288;-71
2021/08/01 03:56:03;;;;;;;21.00;12.70;;;;;;;;;;5070349;28;20314;-71
2021/08/01 03:58:29;;;;;;;21.65;12.57;;;;;;;;;;5066453;28;20417;-71
2021/08/01 04:00:54;;;;;;;21.27;13.55;;;;;;;;;;5070735;28;20180;-71
2021/08/01 04:03:19;;;;;;;25.07;11.97;;;;;;;;;;5070609;28;20246;-70
2021/08/01 04:05:44;;;;;;;25.15;12.73;;;;;;;;;;5069247;28;20642;-71
2021/08/01 04:08:09;;;;;;;20.88;13.20;;;;;;;;;;5050082;28;20319;-70
2021/08/01 04:10:35;;;;;;;26.70;13.63;;;;;;;;;;5057043;28;20223;-71
2021/08/01 04:13:00;;;;;;;24.25;13.75;;;;;;;;;;5061178;28;20204;-71
2021/08/01 04:15:25;;;;;;;21.75;13.65;;;;;;;;;;5051659;28;20173;-71
2021/08/01 04:17:50;;;;;;;22.40;14.10;;;;;;;;;;5064953;28;20294;-70
2021/08/01 04:20:16;;;;;;;27.20;14.07;;;;;;;;;;5067610;28;20185;-71
2021/08/01 04:22:42;;;;;;;23.40;13.80;;;;;;;;;;5067730;28;20438;-71
2021/08/01 04:25:07;;;;;;;25.67;14.50;;;;;;;;;;5069808;28;20695;-71
2021/08/01 04:27:32;;;;;;;22.52;13.20;;;;;;;;;;5068504;28;20173;-71
2021/08/01 04:29:57;;;;;;;29.25;14.68;;;;;;;;;;5065549;28;20228;-71
2021/08/01 04:32:23;;;;;;;25.20;14.20;;;;;;;;;;5068840;28;20176;-71
2021/08/01 04:34:48;;;;;;;27.48;13.90;;;;;;;;;;5068397;28;20172;-71
2021/08/01 04:37:13;;;;;;;27.85;14.55;;;;;;;;;;5047676;28;20216;-70
2021/08/01 04:39:38;;;;;;;25.50;14.50;;;;;;;;;;5065213;28;20176;-71
2021/08/01 04:42:03;;;;;;;27.33;14.68;;;;;;;;;;5063241;28;20926;-71
2021/08/01 04:44:28;;;;;;;23.55;13.98;;;;;;;;;;5069860;28;20291;-71
2021/08/01 04:46:54;;;;;;;25.52;14.25;;;;;;;;;;5068699;28;20173;-71
2021/08/01 04:49:19;;;;;;;27.23;13.75;;;;;;;;;;5067499;28;20216;-71
2021/08/01 04:51:44;;;;;;;28.70;14.57;;;;;;;;;;5070502;28;20172;-71
2021/08/01 04:54:09;;;;;;;28.92;14.48;;;;;;;;;;5055101;28;20184;-71
2021/08/01 04:56:34;;;;;;;29.97;16.07;;;;;;;;;;5051146;28;20260;-71
2021/08/01 04:59:00;;;;;;;24.75;16.25;;;;;;;;;;5047626;28;20422;-71
2021/08/01 05:01:25;;;;;;;32.80;16.27;;;;;;;;;;5068264;28;20445;-71
2021/08/01 05:03:50;;;;;;;29.13;15.87;;;;;;;;;;5058841;28;20239;-71
2021/08/01 05:06:15;;;;;;;25.38;15.50;;;;;;;;;;5066360;28;20545;-71
2021/08/01 05:08:41;;;;;;;28.08;16.83;;;;;;;;;;5062735;28;20203;-70
2021/08/01 05:11:07;;;;;;;27.20;16.38;;;;;;;;;;5065300;28;20181;-71
2021/08/01 05:13:32;;;;;;;29.92;17.52;;;;;;;;;;5069807;28;20313;-71
2021/08/01 05:15:57;;;;;;;30.95;17.17;;;;;;;;;;5050832;28;20231;-71
2021/08/01 05:18:22;;;;;;;35.57;18.20;;;;;;;;;;5069710;28;20219;-71
2021/08/01 05:20:47;;;;;;;28.17;18.10;;;;;;;;;;5050643;28;20426;-70
2021/08/01 05:23:13;;;;;;;34.00;19.80;;;;;;;;;;5063919;28;20207;-70
2021/08/01 05:25:38;;;;;;;30.15;20.63;;;;;;;;;;5070548;28;20694;-70
2021/08/01 05:28:03;;;;;;;32.83;19.20;;;;;;;;;;5069382;28;20189;-70
2021/08/01 05:30:28;;;;;;;33.47;22.40;;;;;;;;;;5060283;28;20250;-69
2021/08/01 05:32:53;;;;;;;36.63;23.88;;;;;;;;;;5071177;28;20242;-70
2021/08/01 05:35:19;;;;;;;42.40;24.10;;;;;;;;;;5064811;28;20674;-70
2021/08/01 05:37:44;;;;;;;36.23;24.07;;;;;;;;;;5066312;28;20486;-70
2021/08/01 05:40:10;;;;;;;44.27;25.07;;;;;;;;;;5068037;28;20998;-71
2021/08/01 05:42:36;;;;;;;36.67;22.42;;;;;;;;;;5064779;28;20452;-71
2021/08/01 05:45:01;;;;;;;41.53;24.08;;;;;;;;;;5065448;28;20176;-70
2021/08/01 05:47:26;;;;;;;45.08;25.98;;;;;;;;;;5064511;28;20196;-70
2021/08/01 05:49:51;;;;;;;42.15;25.65;;;;;;;;;;5048435;28;20207;-70
2021/08/01 05:52:17;;;;;;;42.75;27.42;;;;;;;;;;5069118;28;20600;-71
2021/08/01 05:54:42;;;;;;;43.03;26.20;;;;;;;;;;5067694;28;20208;-71
2021/08/01 05:57:07;;;;;;;40.88;25.73;;;;;;;;;;5069414;28;20169;-70
2021/08/01 05:59:32;;;;;;;48.80;26.70;;;;;;;;;;5068487;28;20176;-70
2021/08/01 06:01:58;;;;;;;45.55;26.73;;;;;;;;;;5068898;28;20185;-70
2021/08/01 06:04:23;;;;;;;42.92;27.20;;;;;;;;;;5059156;28;20232;-70
2021/08/01 06:06:48;;;;;;;49.88;27.98;;;;;;;;;;5062781;28;20180;-71
2021/08/01 06:09:13;;;;;;;54.42;27.80;;;;;;;;;;5064890;28;20572;-70
2021/08/01 06:11:38;;;;;;;47.87;28.87;;;;;;;;;;5070972;28;20234;-70
2021/08/01 06:14:03;;;;;;;43.10;27.70;;;;;;;;;;5068574;28;20442;-70
2021/08/01 06:16:29;;;;;;;47.47;26.70;;;;;;;;;;5062406;28;20177;-70
2021/08/01 06:18:54;;;;;;;44.75;27.48;;;;;;;;;;5065624;28;20638;-71
2021/08/01 06:21:20;;;;;;;48.27;27.53;;;;;;;;;;5066359;28;20184;-70
2021/08/01 06:23:51;;;;;;;48.95;27.00;;;;;;;;;;5072302;28;20453;-71
2021/08/01 06:26:18;;;;;;;41.25;25.65;;;;;;;;;;5074232;28;20674;-73
2021/08/01 06:28:43;;;;;;;51.40;27.65;;;;;;;;;;5050483;28;20181;-70
2021/08/01 06:31:08;;;;;;;43.80;25.88;;;;;;;;;;5072340;28;20183;-69
2021/08/01 06:33:34;;;;;;;39.50;24.52;;;;;;;;;;5074082;28;20235;-71
2021/08/01 06:35:59;;;;;;;47.42;25.10;;;;;;;;;;5069971;28;20566;-71
2021/08/01 06:38:25;;;;;;;34.67;24.48;;;;;;;;;;5067726;28;20187;-71
2021/08/01 06:40:50;;;;;;;37.65;24.45;;;;;;;;;;5042447;28;20629;-70
2021/08/01 06:43:15;;;;;;;38.17;25.42;;;;;;;;;;5065060;28;20622;-71
2021/08/01 06:45:42;;;;;;;34.78;22.45;;;;;;;;;;5071561;28;20210;-71
2021/08/01 06:48:07;;;;;;;37.05;23.02;;;;;;;;;;5067693;28;20186;-71
2021/08/01 06:50:36;;;;;;;33.45;22.67;;;;;;;;;;5070236;28;20220;-72
2021/08/01 06:53:01;;;;;;;33.10;22.35;;;;;;;;;;5071917;28;20254;-72
2021/08/01 06:55:26;;;;;;;33.72;21.83;;;;;;;;;;5072119;28;20595;-73
2021/08/01 06:57:51;;;;;;;30.27;20.55;;;;;;;;;;5069846;28;20181;-72
2021/08/01 07:00:20;;;;;;;32.00;20.87;;;;;;;;;;5049399;28;20271;-72
2021/08/01 07:02:46;;;;;;;33.63;20.42;;;;;;;;;;5061509;28;20506;-72
2021/08/01 07:05:11;;;;;;;29.58;20.75;;;;;;;;;;5070938;28;20608;-72
2021/08/01 07:07:36;;;;;;;30.90;20.30;;;;;;;;;;5069127;28;20590;-73
2021/08/01 07:10:02;;;;;;;27.88;20.13;;;;;;;;;;5067434;28;20532;-71
2021/08/01 07:12:27;;;;;;;30.83;20.40;;;;;;;;;;5071253;28;20719;-72
2021/08/01 07:14:53;;;;;;;27.23;19.87;;;;;;;;;;5056965;28;20192;-73
2021/08/01 07:17:22;;;;;;;27.67;19.98;;;;;;;;;;5069968;28;20461;-71
2021/08/01 07:19:47;;;;;;;29.30;19.50;;;;;;;;;;5051998;28;20269;-70
2021/08/01 07:22:13;;;;;;;24.55;17.10;;;;;;;;;;5071692;28;20284;-70
2021/08/01 07:24:38;;;;;;;24.17;17.17;;;;;;;;;;5066903;28;20288;-70
2021/08/01 07:27:03;;;;;;;30.93;19.50;;;;;;;;;;5071498;28;20429;-71
2021/08/01 07:29:28;;;;;;;21.60;16.90;;;;;;;;;;5068043;28;20462;-70
2021/08/01 07:31:55;;;;;;;27.70;18.63;;;;;;;;;;5073736;28;20463;-71
2021/08/01 07:34:20;;;;;;;21.58;16.52;;;;;;;;;;5065793;28;20448;-71
2021/08/01 07:36:46;;;;;;;23.80;16.93;;;;;;;;;;5065872;28;20185;-71
2021/08/01 07:39:11;;;;;;;23.00;16.17;;;;;;;;;;5068197;28;20925;-71
2021/08/01 07:41:36;;;;;;;19.00;14.17;;;;;;;;;;5071218;28;20246;-71
2021/08/01 07:44:01;;;;;;;18.55;15.13;;;;;;;;;;5052311;28;20468;-71
2021/08/01 07:46:27;;;;;;;19.07;14.77;;;;;;;;;;5055205;28;20185;-71
2021/08/01 07:48:52;;;;;;;16.92;13.40;;;;;;;;;;5070661;28;20457;-70
2021/08/01 07:51:17;;;;;;;15.47;12.20;;;;;;;;;;5067956;28;20185;-71
2021/08/01 07:53:42;;;;;;;17.00;13.10;;;;;;;;;;5066651;28;20924;-72
2021/08/01 07:56:07;;;;;;;20.02;13.40;;;;;;;;;;5069890;28;20426;-71
2021/08/01 07:58:32;;;;;;;19.13;13.75;;;;;;;;;;5068156;28;20215;-70
2021/08/01 08:00:58;;;;;;;18.73;12.63;;;;;;;;;;5066859;28;20506;-70
2021/08/01 08:03:23;;;;;;;20.20;14.37;;;;;;;;;;5066333;28;20469;-71
2021/08/01 08:05:48;;;;;;;17.20;14.30;;;;;;;;;;5069404;28;20437;-69
2021/08/01 08:08:13;;;;;;;18.17;14.00;;;;;;;;;;5066677;28;20185;-70
2021/08/01 08:10:38;;;;;;;17.07;14.37;;;;;;;;;;5069765;28;20204;-71
2021/08/01 08:13:04;;;;;;;21.47;13.90;;;;;;;;;;5064624;28;20445;-71
2021/08/01 08:15:29;;;;;;;18.15;11.40;;;;;;;;;;5068477;28;20903;-69
2021/08/01 08:17:54;;;;;;;18.93;12.13;;;;;;;;;;5071377;28;20234;-71
2021/08/01 08:20:19;;;;;;;16.33;11.90;;;;;;;;;;5071716;28;20437;-71
2021/08/01 08:22:44;;;;;;;13.10;10.37;;;;;;;;;;5051861;28;20533;-70
2021/08/01 08:25:10;;;;;;;12.07;10.37;;;;;;;;;;5037918;28;20421;-70
2021/08/01 08:27:35;;;;;;;16.85;10.85;;;;;;;;;;5036352;28;20509;-69
2021/08/01 08:30:00;;;;;;;13.35;10.07;;;;;;;;;;5051520;28;20285;-69
2021/08/01 08:32:25;;;;;;;14.77;10.77;;;;;;;;;;5049608;28;20278;-68
2021/08/01 08:34:50;;;;;;;13.40;9.37;;;;;;;;;;5035942;28;20189;-69
2021/08/01 08:37:15;;;;;;;14.57;9.53;;;;;;;;;;5035585;28;20797;-69
2021/08/01 08:39:41;;;;;;;8.53;7.63;;;;;;;;;;5053874;28;20732;-69
2021/08/01 08:42:06;;;;;;;8.65;6.53;;;;;;;;;;5053489;28;20482;-68
2021/08/01 08:44:33;;;;;;;5.82;4.88;;;;;;;;;;5054563;28;20209;-69
2021/08/01 08:46:58;;;;;;;5.10;4.60;;;;;;;;;;5038181;28;20235;-68
2021/08/01 08:49:23;;;;;;;7.40;5.60;;;;;;;;;;5038203;28;20651;-70
2021/08/01 08:51:53;;;;;;;7.55;5.88;;;;;;;;;;5039948;28;20649;-69
2021/08/01 08:54:26;;;;;;;6.93;5.78;;;;;;;;;;5039317;28;20205;-70
2021/08/01 08:56:52;;;;;;;5.78;5.28;;;;;;;;;;5036877;28;20173;-69
2021/08/01 08:59:18;;;;;;;6.72;4.90;;;;;;;;;;5049054;28;20187;-69
2021/08/01 09:01:44;;;;;;;5.68;4.88;;;;;;;;;;5048552;28;21441;-70
2021/08/01 09:04:09;;;;;;;5.00;4.50;;;;;;;;;;5037610;28;20533;-69
2021/08/01 09:06:35;;;;;;;6.00;5.15;;;;;;;;;;5048063;28;20436;-69
2021/08/01 09:09:00;;;;;;;5.82;4.32;;;;;;;;;;5048966;28;20277;-69
2021/08/01 09:11:25;;;;;;;5.03;4.30;;;;;;;;;;5039743;28;20658;-72
2021/08/01 09:13:54;;;;;;;5.40;3.55;;;;;;;;;;5035501;28;20193;-69
2021/08/01 09:16:21;;;;;;;4.40;3.28;;;;;;;;;;5056733;28;20889;-69
2021/08/01 09:18:47;;;;;;;2.83;2.63;;;;;;;;;;5061200;28;20173;-69
2021/08/01 09:21:29;;;;;;;2.70;2.50;;;;;;;;;;5048213;28;20191;-69
2021/08/01 09:23:54;;;;;;;2.92;2.72;;;;;;;;;;5050457;28;20204;-70
2021/08/01 09:26:19;;;;;;;2.83;2.53;;;;;;;;;;5050233;28;20827;-69
2021/08/01 09:28:59;;;;;;;3.45;2.88;;;;;;;;;;5049480;28;20433;-71
2021/08/01 09:31:24;;;;;;;2.65;2.40;;;;;;;;;;5046045;28;22327;-69
2021/08/01 09:33:51;;;;;;;4.30;3.07;;;;;;;;;;5046086;28;20218;-69
2021/08/01 09:36:17;;;;;;;2.80;2.60;;;;;;;;;;5036601;28;20838;-70
2021/08/01 09:38:46;;;;;;;3.88;3.05;;;;;;;;;;5054179;28;20173;-69
2021/08/01 09:41:12;;;;;;;2.88;2.35;;;;;;;;;;5033796;28;20851;-70
2021/08/01 09:43:48;;;;;;;3.13;2.25;;;;;;;;;;5047185;28;20490;-70
2021/08/01 09:46:13;;;;;;;2.75;2.15;;;;;;;;;;5048344;28;20216;-70
2021/08/01 09:48:38;;;;;;;2.20;2.00;;;;;;;;;;5038715;28;20203;-70
2021/08/01 09:51:04;;;;;;;2.90;2.17;;;;;;;;;;5046684;28;20231;-69
2021/08/01 09:53:30;;;;;;;2.88;2.20;;;;;;;;;;5054638;28;20203;-69
2021/08/01 09:56:24;;;;;;;2.67;2.45;;;;;;;;;;5048367;28;20533;-70
2021/08/01 09:58:50;;;;;;;3.15;2.25;;;;;;;;;;5031700;28;20197;-70
2021/08/01 10:01:15;;;;;;;2.20;2.00;;;;;;;;;;5053654;28;20181;-70
2021/08/01 10:03:42;;;;;;;2.50;1.90;;;;;;;;;;5046982;28;20216;-70
2021/08/01 10:06:07;;;;;;;4.15;2.92;;;;;;;;;;5033008;28;20169;-69
2021/08/01 10:08:37;;;;;;;3.10;2.50;;;;;;;;;;5053417;28;20188;-71
2021/08/01 10:11:09;;;;;;;2.10;2.00;;;;;;;;;;5047877;28;20201;-71
2021/08/01 10:13:35;;;;;;;2.92;2.72;;;;;;;;;;5051188;28;20229;-71
2021/08/01 10:16:00;;;;;;;3.17;2.88;;;;;;;;;;5047230;28;20273;-71
2021/08/01 10:18:25;;;;;;;2.63;2.43;;;;;;;;;;5052127;28;20650;-71
2021/08/01 10:20:50;;;;;;;3.53;2.80;;;;;;;;;;5033868;28;22148;-70
2021/08/01 10:23:16;;;;;;;2.38;2.17;;;;;;;;;;5037328;28;21951;-71
2021/08/01 10:25:42;;;;;;;2.40;2.13;;;;;;;;;;5038127;28;20185;-71
2021/08/01 10:28:09;;;;;;;2.55;2.35;;;;;;;;;;5052476;28;20173;-71
2021/08/01 10:30:35;;;;;;;4.40;2.47;;;;;;;;;;5066862;28;20248;-71
2021/08/01 10:33:04;;;;;;;4.15;2.80;;;;;;;;;;5070220;28;20662;-70
2021/08/01 10:35:30;;;;;;;2.92;2.70;;;;;;;;;;5034721;28;20189;-70
2021/08/01 10:37:58;;;;;;;4.00;3.05;;;;;;;;;;5051786;28;20172;-71
2021/08/01 10:40:25;;;;;;;3.22;2.80;;;;;;;;;;5034912;28;20193;-70
2021/08/01 10:42:53;;;;;;;3.67;3.38;;;;;;;;;;5050741;28;22024;-70
2021/08/01 10:45:20;;;;;;;4.75;4.03;;;;;;;;;;5046327;28;20185;-71
2021/08/01 10:47:45;;;;;;;4.18;3.78;;;;;;;;;;5051558;28;20181;-70
2021/08/01 10:50:14;;;;;;;3.80;3.50;;;;;;;;;;5048085;28;20205;-70
2021/08/01 10:52:40;;;;;;;5.90;3.97;;;;;;;;;;5047313;28;20201;-70
2021/08/01 10:55:06;;;;;;;4.25;3.85;;;;;;;;;;5047776;28;20188;-70
2021/08/01 10:57:32;;;;;;;3.85;3.50;;;;;;;;;;5045190;28;20181;-71
2021/08/01 10:59:59;;;;;;;3.70;3.40;;;;;;;;;;5046206;28;20184;-71
2021/08/01 11:02:25;;;;;;;3.20;2.90;;;;;;;;;;5047701;28;20228;-71
2021/08/01 11:04:51;;;;;;;3.30;3.00;;;;;;;;;;5048272;28;20511;-71
2021/08/01 11:07:25;;;;;;;4.63;3.30;;;;;;;;;;5052146;28;20275;-71
2021/08/01 11:10:13;;;;;;;5.43;4.10;;;;;;;;;;5050811;28;20685;-71
2021/08/01 11:12:38;;;;;;;4.38;3.90;;;;;;;;;;5056971;28;20201;-71
2021/08/01 11:15:05;;;;;;;4.90;4.25;;;;;;;;;;5034043;28;20835;-71
2021/08/01 11:17:43;;;;;;;4.93;4.35;;;;;;;;;;5051011;28;20255;-70
2021/08/01 11:20:23;;;;;;;4.72;4.30;;;;;;;;;;5051364;28;20657;-71
2021/08/01 11:22:49;;;;;;;4.70;4.30;;;;;;;;;;5036310;28;20235;-70
2021/08/01 11:25:27;;;;;;;4.45;3.75;;;;;;;;;;5037780;28;20272;-71
2021/08/01 11:28:08;;;;;;;4.78;4.38;;;;;;;;;;5052207;28;20268;-70
2021/08/01 11:31:02;;;;;;;5.57;4.93;;;;;;;;;;5048888;28;20296;-70
2021/08/01 11:33:34;;;;;;;4.53;4.10;;;;;;;;;;5033407;28;20205;-70
2021/08/01 11:36:17;;;;;;;6.68;4.03;;;;;;;;;;5048953;28;20188;-70
2021/08/01 11:38:50;;;;;;;4.68;4.28;;;;;;;;;;5041698;28;20173;-71
2021/08/01 11:41:34;;;;;;;6.85;4.70;;;;;;;;;;5050754;28;20192;-71
2021/08/01 11:44:03;;;;;;;5.30;4.80;;;;;;;;;;5051763;28;20548;-70
2021/08/01 11:46:53;;;;;;;5.03;4.32;;;;;;;;;;5052652;28;20188;-71
2021/08/01 11:49:19;;;;;;;4.45;4.05;;;;;;;;;;5040074;28;20211;-71
2021/08/01 11:51:44;;;;;;;4.80;4.30;;;;;;;;;;5051467;28;20181;-69
2021/08/01 11:54:13;;;;;;;4.18;3.70;;;;;;;;;;5037071;28;20197;-70
2021/08/01 11:56:41;;;;;;;4.72;3.30;;;;;;;;;;5049552;28;20212;-71
2021/08/01 11:59:07;;;;;;;3.85;3.55;;;;;;;;;;5059022;28;20653;-71
2021/08/01 12:01:32;;;;;;;5.05;3.80;;;;;;;;;;5036064;28;20177;-70
2021/08/01 12:04:05;;;;;;;4.03;3.08;;;;;;;;;;5051282;28;20212;-71
2021/08/01 12:06:50;;;;;;;5.90;3.63;;;;;;;;;;5049713;28;20275;-69
2021/08/01 12:09:26;;;;;;;3.50;3.20;;;;;;;;;;5051355;28;20213;-71
2021/08/01 12:11:51;;;;;;;3.88;3.20;;;;;;;;;;5049015;28;20185;-69
2021/08/01 12:14:16;;;;;;;3.30;2.93;;;;;;;;;;5051838;28;21544;-71
2021/08/01 12:16:52;;;;;;;3.72;3.42;;;;;;;;;;5054558;28;20430;-70
2021/08/01 12:19:18;;;;;;;5.85;2.72;;;;;;;;;;5036763;28;20185;-70
2021/08/01 12:21:43;;;;;;;2.10;1.90;;;;;;;;;;5048805;28;20264;-69
2021/08/01 12:24:28;;;;;;;3.08;1.95;;;;;;;;;;5053516;28;20746;-69
2021/08/01 12:27:08;;;;;;;2.83;2.00;;;;;;;;;;5051822;28;20194;-70
2021/08/01 12:29:35;;;;;;;2.15;1.90;;;;;;;;;;5037678;28;20575;-69
2021/08/01 12:32:01;;;;;;;2.88;2.22;;;;;;;;;;5053726;28;20211;-70
2021/08/01 12:34:26;;;;;;;3.08;1.80;;;;;;;;;;5053885;28;20247;-71
2021/08/01 12:36:52;;;;;;;3.15;1.50;;;;;;;;;;5048863;28;20196;-70
2021/08/01 12:39:18;;;;;;;2.72;1.60;;;;;;;;;;5066022;28;20681;-70
2021/08/01 12:41:47;;;;;;;2.85;1.92;;;;;;;;;;5050661;28;20637;-69
2021/08/01 12:44:16;;;;;;;2.63;1.85;;;;;;;;;;5050817;28;20196;-71
2021/08/01 12:46:41;;;;;;;4.50;2.40;;;;;;;;;;5040149;28;20172;-69
2021/08/01 12:49:07;;;;;;;6.03;2.60;;;;;;;;;;5049123;28;20177;-70
2021/08/01 12:51:32;;;;;;;3.30;2.97;;;;;;;;;;5051167;28;20199;-70
2021/08/01 12:53:59;;;;;;;4.25;2.63;;;;;;;;;;5049670;28;20212;-71
2021/08/01 12:56:24;;;;;;;5.50;2.92;;;;;;;;;;5048485;28;20259;-70
2021/08/01 12:58:49;;;;;;;2.72;2.50;;;;;;;;;;5048029;28;20179;-69
2021/08/01 13:01:14;;;;;;;4.07;2.67;;;;;;;;;;5047455;28;20193;-70
2021/08/01 13:03:41;;;;;;;2.50;2.30;;;;;;;;;;5050639;28;20465;-70
2021/08/01 13:06:06;;;;;;;2.75;2.35;;;;;;;;;;5050504;28;20422;-69
2021/08/01 13:08:34;;;;;;;3.08;2.40;;;;;;;;;;5048271;28;20652;-70
2021/08/01 13:11:00;;;;;;;2.50;2.33;;;;;;;;;;5049449;28;20209;-70
2021/08/01 13:13:25;;;;;;;2.65;1.60;;;;;;;;;;5054658;28;20611;-71
2021/08/01 13:15:54;;;;;;;1.70;1.50;;;;;;;;;;5052927;28;20177;-69
2021/08/01 13:18:30;;;;;;;1.60;1.50;;;;;;;;;;5050087;28;20425;-71
2021/08/01 13:20:56;;;;;;;2.20;1.63;;;;;;;;;;5048261;28;20669;-71
2021/08/01 13:23:35;;;;;;;2.10;1.90;;;;;;;;;;5050607;28;20205;-71
2021/08/01 13:26:15;;;;;;;1.80;1.70;;;;;;;;;;5047940;28;20192;-71
2021/08/01 13:28:46;;;;;;;2.50;1.63;;;;;;;;;;5047838;28;20184;-70
2021/08/01 13:31:12;;;;;;;1.70;1.60;;;;;;;;;;5047471;28;20580;-71
2021/08/01 13:33:37;;;;;;;2.58;2.20;;;;;;;;;;5035081;28;20200;-71
2021/08/01 13:36:03;;;;;;;1.60;1.50;;;;;;;;;;5049752;28;20273;-71
2021/08/01 13:38:28;;;;;;;2.72;2.03;;;;;;;;;;5053671;28;20184;-71
2021/08/01 13:40:53;;;;;;;2.28;1.48;;;;;;;;;;5047814;28;20760;-71
2021/08/01 13:43:20;;;;;;;1.70;1.60;;;;;;;;;;5037932;28;20710;-71
2021/08/01 13:45:46;;;;;;;1.50;1.40;;;;;;;;;;5046814;28;20184;-71
2021/08/01 13:48:11;;;;;;;1.45;1.30;;;;;;;;;;5033463;28;20190;-71
2021/08/01 13:50:38;;;;;;;1.67;1.58;;;;;;;;;;5047796;28;20275;-70
2021/08/01 13:53:03;;;;;;;1.65;1.50;;;;;;;;;;5054037;28;20685;-71
2021/08/01 13:55:28;;;;;;;1.77;1.55;;;;;;;;;;5046232;28;20184;-71
2021/08/01 13:58:01;;;;;;;2.00;1.60;;;;;;;;;;5048571;28;20181;-71
2021/08/01 14:00:26;;;;;;;1.63;1.50;;;;;;;;;;5048413;28;20574;-70
2021/08/01 14:02:51;;;;;;;2.28;1.52;;;;;;;;;;5062220;22;20211;-69
2021/08/01 14:05:16;;;;;;;2.20;1.60;;;;;;;;;;5050359;28;20227;-70
2021/08/01 14:07:41;;;;;;;1.83;1.60;;;;;;;;;;5046473;28;20449;-69
2021/08/01 14:10:07;;;;;;;2.73;2.40;;;;;;;;;;5047870;28;20270;-69
2021/08/01 14:12:32;;;;;;;2.15;1.52;;;;;;;;;;5049308;28;20178;-68
2021/08/01 14:14:58;;;;;;;2.00;1.80;;;;;;;;;;5046181;28;20184;-68
2021/08/01 14:17:23;;;;;;;2.30;2.10;;;;;;;;;;5051718;28;20174;-70
2021/08/01 14:19:48;;;;;;;2.60;1.75;;;;;;;;;;5045803;28;20213;-69
2021/08/01 14:22:15;;;;;;;1.90;1.53;;;;;;;;;;5032744;28;20602;-70
2021/08/01 14:24:40;;;;;;;2.03;1.73;;;;;;;;;;5034972;28;20481;-72
2021/08/01 14:27:06;;;;;;;2.13;1.67;;;;;;;;;;5030849;28;20281;-69